Pingree Grove, Illinois
Current Conditions -  °F | °C
As of 8:35 PM on Sunday 21 Dec 2014 (Local Time) from KDKB Reporting Station
Overcast Overcast  
Wind Chill: 23°   Ceiling: 2500
Heat Index: 33°   Visibility: 7mi
Dew Point: 30°   Wind: 14mph
Humidity: 87%   Direction: 150°SSE
Pressure: 30.01"   Gusts: NA
Location:  42.0764°N, 88.5255°W
Report Text: KDKB 220235Z AUTO 15012KT 7SM OVC025 01/M01 A3001 RMK AO2 T00061013
Loading
Personal Weather Stations






























Interactive Weather Map New forecast layout! Learn more

10-Day Weather Forecast

Advertisements
Track Severe Weather on mobile